sensor_id;sensor_type;location;lat;lon;timestamp;P1;durP1;ratioP1;P2;durP2;ratioP2
5898;SDS011;2975;50.956;6.962;2022-09-24T00:00:27;9.50;;;4.73;;
5898;SDS011;2975;50.956;6.962;2022-09-24T00:02:52;11.80;;;4.93;;
5898;SDS011;2975;50.956;6.962;2022-09-24T00:05:18;8.90;;;4.70;;
5898;SDS011;2975;50.956;6.962;2022-09-24T00:07:44;6.73;;;4.53;;
5898;SDS011;2975;50.956;6.962;2022-09-24T00:10:09;8.47;;;5.00;;
5898;SDS011;2975;50.956;6.962;2022-09-24T00:12:35;8.77;;;4.87;;
5898;SDS011;2975;50.956;6.962;2022-09-24T00:15:01;6.47;;;4.57;;
5898;SDS011;2975;50.956;6.962;2022-09-24T00:17:27;7.87;;;4.37;;
5898;SDS011;2975;50.956;6.962;2022-09-24T00:19:53;9.27;;;4.87;;
5898;SDS011;2975;50.956;6.962;2022-09-24T00:22:18;10.80;;;4.90;;
5898;SDS011;2975;50.956;6.962;2022-09-24T00:24:44;10.10;;;4.80;;
5898;SDS011;2975;50.956;6.962;2022-09-24T00:27:28;11.03;;;4.73;;
5898;SDS011;2975;50.956;6.962;2022-09-24T00:29:54;6.03;;;4.60;;
5898;SDS011;2975;50.956;6.962;2022-09-24T00:32:19;6.67;;;4.70;;
5898;SDS011;2975;50.956;6.962;2022-09-24T00:34:47;8.30;;;5.07;;
5898;SDS011;2975;50.956;6.962;2022-09-24T00:37:16;9.73;;;4.90;;
5898;SDS011;2975;50.956;6.962;2022-09-24T00:39:43;8.70;;;4.50;;
5898;SDS011;2975;50.956;6.962;2022-09-24T00:42:10;6.87;;;4.53;;
5898;SDS011;2975;50.956;6.962;2022-09-24T00:44:47;6.77;;;4.33;;
5898;SDS011;2975;50.956;6.962;2022-09-24T00:47:30;7.73;;;4.97;;
5898;SDS011;2975;50.956;6.962;2022-09-24T00:50:03;7.33;;;4.47;;
5898;SDS011;2975;50.956;6.962;2022-09-24T00:52:34;9.20;;;4.73;;
5898;SDS011;2975;50.956;6.962;2022-09-24T00:55:06;10.33;;;4.70;;
5898;SDS011;2975;50.956;6.962;2022-09-24T00:57:33;6.77;;;4.33;;
5898;SDS011;2975;50.956;6.962;2022-09-24T00:59:59;6.70;;;4.13;;
5898;SDS011;2975;50.956;6.962;2022-09-24T01:02:25;9.00;;;5.17;;
5898;SDS011;2975;50.956;6.962;2022-09-24T01:04:50;7.63;;;4.57;;
5898;SDS011;2975;50.956;6.962;2022-09-24T01:07:16;6.13;;;4.80;;
5898;SDS011;2975;50.956;6.962;2022-09-24T01:09:42;8.47;;;4.73;;
5898;SDS011;2975;50.956;6.962;2022-09-24T01:18:03;6.20;;;4.57;;
5898;SDS011;2975;50.956;6.962;2022-09-24T01:23:48;6.40;;;4.60;;
5898;SDS011;2975;50.956;6.962;2022-09-24T01:29:27;9.40;;;4.57;;
5898;SDS011;2975;50.956;6.962;2022-09-24T01:32:05;7.30;;;4.03;;
5898;SDS011;2975;50.956;6.962;2022-09-24T01:35:04;5.73;;;4.27;;
5898;SDS011;2975;50.956;6.962;2022-09-24T01:37:31;9.33;;;5.37;;
5898;SDS011;2975;50.956;6.962;2022-09-24T01:40:00;7.03;;;4.70;;
5898;SDS011;2975;50.956;6.962;2022-09-24T01:42:29;6.77;;;4.57;;
5898;SDS011;2975;50.956;6.962;2022-09-24T01:44:56;7.93;;;4.33;;
5898;SDS011;2975;50.956;6.962;2022-09-24T01:47:24;6.83;;;4.77;;
5898;SDS011;2975;50.956;6.962;2022-09-24T01:49:58;8.13;;;5.03;;
5898;SDS011;2975;50.956;6.962;2022-09-24T01:52:26;8.20;;;5.13;;
5898;SDS011;2975;50.956;6.962;2022-09-24T01:54:58;9.07;;;4.60;;
5898;SDS011;2975;50.956;6.962;2022-09-24T01:57:30;8.17;;;4.53;;
5898;SDS011;2975;50.956;6.962;2022-09-24T02:07:41;7.07;;;4.53;;
5898;SDS011;2975;50.956;6.962;2022-09-24T02:10:15;7.77;;;4.17;;
5898;SDS011;2975;50.956;6.962;2022-09-24T02:12:43;6.53;;;4.43;;
5898;SDS011;2975;50.956;6.962;2022-09-24T02:15:19;10.10;;;4.03;;
5898;SDS011;2975;50.956;6.962;2022-09-24T02:17:50;7.90;;;4.30;;
5898;SDS011;2975;50.956;6.962;2022-09-24T02:20:20;6.40;;;4.70;;
5898;SDS011;2975;50.956;6.962;2022-09-24T02:22:48;6.30;;;4.00;;
5898;SDS011;2975;50.956;6.962;2022-09-24T02:28:03;8.17;;;4.30;;
5898;SDS011;2975;50.956;6.962;2022-09-24T02:30:30;8.37;;;4.13;;
5898;SDS011;2975;50.956;6.962;2022-09-24T02:33:04;7.50;;;4.47;;
5898;SDS011;2975;50.956;6.962;2022-09-24T02:35:52;6.93;;;4.50;;
5898;SDS011;2975;50.956;6.962;2022-09-24T02:38:18;8.43;;;4.57;;
5898;SDS011;2975;50.956;6.962;2022-09-24T02:40:44;9.53;;;4.27;;
5898;SDS011;2975;50.956;6.962;2022-09-24T02:43:10;8.37;;;4.17;;
5898;SDS011;2975;50.956;6.962;2022-09-24T02:45:36;6.93;;;4.57;;
5898;SDS011;2975;50.956;6.962;2022-09-24T02:48:02;6.30;;;4.07;;
5898;SDS011;2975;50.956;6.962;2022-09-24T02:50:28;5.60;;;4.17;;
5898;SDS011;2975;50.956;6.962;2022-09-24T02:52:53;7.77;;;4.27;;
5898;SDS011;2975;50.956;6.962;2022-09-24T02:55:19;8.27;;;4.20;;
5898;SDS011;2975;50.956;6.962;2022-09-24T02:57:45;8.67;;;4.30;;
5898;SDS011;2975;50.956;6.962;2022-09-24T03:00:11;5.87;;;4.33;;
5898;SDS011;2975;50.956;6.962;2022-09-24T03:02:40;9.00;;;4.90;;
5898;SDS011;2975;50.956;6.962;2022-09-24T03:05:07;11.37;;;4.87;;
5898;SDS011;2975;50.956;6.962;2022-09-24T03:07:33;10.40;;;4.73;;
5898;SDS011;2975;50.956;6.962;2022-09-24T03:09:59;6.23;;;4.60;;
5898;SDS011;2975;50.956;6.962;2022-09-24T03:12:24;8.10;;;4.73;;
5898;SDS011;2975;50.956;6.962;2022-09-24T03:14:50;9.07;;;4.30;;
5898;SDS011;2975;50.956;6.962;2022-09-24T03:17:15;5.50;;;4.03;;
5898;SDS011;2975;50.956;6.962;2022-09-24T03:19:41;12.37;;;4.77;;
5898;SDS011;2975;50.956;6.962;2022-09-24T03:22:07;6.53;;;4.80;;
5898;SDS011;2975;50.956;6.962;2022-09-24T03:24:32;9.37;;;4.67;;
5898;SDS011;2975;50.956;6.962;2022-09-24T03:26:58;8.90;;;4.70;;
5898;SDS011;2975;50.956;6.962;2022-09-24T03:29:23;6.27;;;4.57;;
5898;SDS011;2975;50.956;6.962;2022-09-24T03:32:07;7.80;;;4.63;;
5898;SDS011;2975;50.956;6.962;2022-09-24T03:34:33;5.87;;;4.43;;
5898;SDS011;2975;50.956;6.962;2022-09-24T03:36:59;8.17;;;4.87;;
5898;SDS011;2975;50.956;6.962;2022-09-24T03:39:24;7.23;;;4.27;;
5898;SDS011;2975;50.956;6.962;2022-09-24T03:41:50;6.03;;;4.30;;
5898;SDS011;2975;50.956;6.962;2022-09-24T03:44:15;4.57;;;3.60;;
5898;SDS011;2975;50.956;6.962;2022-09-24T03:46:41;6.43;;;4.70;;
5898;SDS011;2975;50.956;6.962;2022-09-24T03:49:06;8.20;;;4.40;;
5898;SDS011;2975;50.956;6.962;2022-09-24T03:51:32;6.60;;;4.90;;
5898;SDS011;2975;50.956;6.962;2022-09-24T03:53:58;4.87;;;3.80;;
5898;SDS011;2975;50.956;6.962;2022-09-24T03:56:23;6.53;;;4.27;;
5898;SDS011;2975;50.956;6.962;2022-09-24T03:58:49;4.10;;;3.70;;
5898;SDS011;2975;50.956;6.962;2022-09-24T04:01:15;10.07;;;4.60;;
5898;SDS011;2975;50.956;6.962;2022-09-24T04:03:45;4.97;;;4.03;;
5898;SDS011;2975;50.956;6.962;2022-09-24T04:06:12;4.13;;;3.70;;
5898;SDS011;2975;50.956;6.962;2022-09-24T04:08:37;7.87;;;4.13;;
5898;SDS011;2975;50.956;6.962;2022-09-24T04:11:03;6.63;;;4.73;;
5898;SDS011;2975;50.956;6.962;2022-09-24T04:13:29;5.10;;;4.10;;
5898;SDS011;2975;50.956;6.962;2022-09-24T04:15:54;6.20;;;4.67;;
5898;SDS011;2975;50.956;6.962;2022-09-24T04:18:24;9.57;;;4.47;;
5898;SDS011;2975;50.956;6.962;2022-09-24T04:20:50;6.77;;;4.63;;
5898;SDS011;2975;50.956;6.962;2022-09-24T04:23:21;6.13;;;4.30;;
5898;SDS011;2975;50.956;6.962;2022-09-24T04:25:46;5.40;;;4.20;;
5898;SDS011;2975;50.956;6.962;2022-09-24T04:28:12;5.60;;;4.40;;
5898;SDS011;2975;50.956;6.962;2022-09-24T04:30:37;6.67;;;4.37;;
5898;SDS011;2975;50.956;6.962;2022-09-24T04:33:04;6.63;;;4.33;;
5898;SDS011;2975;50.956;6.962;2022-09-24T04:35:31;6.10;;;4.70;;
5898;SDS011;2975;50.956;6.962;2022-09-24T04:37:59;7.17;;;4.27;;
5898;SDS011;2975;50.956;6.962;2022-09-24T04:40:25;5.90;;;4.20;;
5898;SDS011;2975;50.956;6.962;2022-09-24T04:42:51;9.23;;;4.77;;
5898;SDS011;2975;50.956;6.962;2022-09-24T04:45:17;7.80;;;4.63;;
5898;SDS011;2975;50.956;6.962;2022-09-24T04:47:44;8.73;;;4.77;;
5898;SDS011;2975;50.956;6.962;2022-09-24T04:50:20;6.77;;;4.47;;
5898;SDS011;2975;50.956;6.962;2022-09-24T04:52:46;10.40;;;4.57;;
5898;SDS011;2975;50.956;6.962;2022-09-24T04:55:11;6.87;;;4.50;;
5898;SDS011;2975;50.956;6.962;2022-09-24T04:57:37;8.17;;;3.70;;
5898;SDS011;2975;50.956;6.962;2022-09-24T05:00:06;10.60;;;4.40;;
5898;SDS011;2975;50.956;6.962;2022-09-24T05:02:34;6.40;;;4.00;;
5898;SDS011;2975;50.956;6.962;2022-09-24T05:04:59;4.90;;;4.07;;
5898;SDS011;2975;50.956;6.962;2022-09-24T05:07:25;7.37;;;4.70;;
5898;SDS011;2975;50.956;6.962;2022-09-24T05:09:51;5.70;;;4.50;;
5898;SDS011;2975;50.956;6.962;2022-09-24T05:12:16;5.07;;;3.93;;
5898;SDS011;2975;50.956;6.962;2022-09-24T05:14:44;6.20;;;4.23;;
5898;SDS011;2975;50.956;6.962;2022-09-24T05:17:10;5.43;;;3.73;;
5898;SDS011;2975;50.956;6.962;2022-09-24T05:19:35;7.97;;;5.17;;
5898;SDS011;2975;50.956;6.962;2022-09-24T05:22:01;4.73;;;4.03;;
5898;SDS011;2975;50.956;6.962;2022-09-24T05:24:26;6.53;;;4.13;;
5898;SDS011;2975;50.956;6.962;2022-09-24T05:26:52;6.30;;;3.80;;
5898;SDS011;2975;50.956;6.962;2022-09-24T05:29:34;5.77;;;4.10;;
5898;SDS011;2975;50.956;6.962;2022-09-24T05:32:02;5.97;;;3.57;;
5898;SDS011;2975;50.956;6.962;2022-09-24T05:34:29;4.57;;;3.80;;
5898;SDS011;2975;50.956;6.962;2022-09-24T05:36:55;8.20;;;4.20;;
5898;SDS011;2975;50.956;6.962;2022-09-24T05:39:21;5.27;;;4.10;;
5898;SDS011;2975;50.956;6.962;2022-09-24T05:41:46;6.17;;;4.20;;
5898;SDS011;2975;50.956;6.962;2022-09-24T05:44:12;5.43;;;3.90;;
5898;SDS011;2975;50.956;6.962;2022-09-24T05:46:38;5.70;;;4.07;;
5898;SDS011;2975;50.956;6.962;2022-09-24T05:49:03;8.80;;;4.37;;
5898;SDS011;2975;50.956;6.962;2022-09-24T05:51:29;4.97;;;3.93;;
5898;SDS011;2975;50.956;6.962;2022-09-24T05:53:54;6.10;;;3.77;;
5898;SDS011;2975;50.956;6.962;2022-09-24T05:56:20;5.80;;;4.40;;
5898;SDS011;2975;50.956;6.962;2022-09-24T05:58:49;5.10;;;4.27;;
5898;SDS011;2975;50.956;6.962;2022-09-24T06:01:15;4.37;;;3.87;;
5898;SDS011;2975;50.956;6.962;2022-09-24T06:03:41;7.77;;;4.57;;
5898;SDS011;2975;50.956;6.962;2022-09-24T06:06:06;5.17;;;3.63;;
5898;SDS011;2975;50.956;6.962;2022-09-24T06:08:32;6.03;;;3.60;;
5898;SDS011;2975;50.956;6.962;2022-09-24T06:11:02;6.63;;;4.15;;
5898;SDS011;2975;50.956;6.962;2022-09-24T06:13:29;4.87;;;3.63;;
5898;SDS011;2975;50.956;6.962;2022-09-24T06:16:04;9.00;;;4.50;;
5898;SDS011;2975;50.956;6.962;2022-09-24T06:18:33;8.00;;;4.03;;
5898;SDS011;2975;50.956;6.962;2022-09-24T06:21:00;5.43;;;3.77;;
5898;SDS011;2975;50.956;6.962;2022-09-24T06:23:27;4.63;;;4.00;;
5898;SDS011;2975;50.956;6.962;2022-09-24T06:25:55;5.90;;;4.00;;
5898;SDS011;2975;50.956;6.962;2022-09-24T06:28:21;11.50;;;4.20;;
5898;SDS011;2975;50.956;6.962;2022-09-24T06:30:46;6.67;;;3.77;;
5898;SDS011;2975;50.956;6.962;2022-09-24T06:33:12;6.83;;;4.00;;
5898;SDS011;2975;50.956;6.962;2022-09-24T06:35:39;7.07;;;4.20;;
5898;SDS011;2975;50.956;6.962;2022-09-24T06:38:07;6.80;;;4.20;;
5898;SDS011;2975;50.956;6.962;2022-09-24T06:40:35;5.80;;;3.97;;
5898;SDS011;2975;50.956;6.962;2022-09-24T06:43:00;6.23;;;4.10;;
5898;SDS011;2975;50.956;6.962;2022-09-24T06:45:26;6.30;;;4.40;;
5898;SDS011;2975;50.956;6.962;2022-09-24T06:50:17;7.20;;;4.27;;
5898;SDS011;2975;50.956;6.962;2022-09-24T06:52:43;6.93;;;4.23;;
5898;SDS011;2975;50.956;6.962;2022-09-24T06:55:08;13.87;;;4.33;;
5898;SDS011;2975;50.956;6.962;2022-09-24T06:57:34;7.33;;;4.47;;
5898;SDS011;2975;50.956;6.962;2022-09-24T06:59:59;6.87;;;4.47;;
5898;SDS011;2975;50.956;6.962;2022-09-24T07:02:25;6.93;;;4.30;;
5898;SDS011;2975;50.956;6.962;2022-09-24T07:04:52;4.90;;;4.40;;
5898;SDS011;2975;50.956;6.962;2022-09-24T07:07:18;6.37;;;5.20;;
5898;SDS011;2975;50.956;6.962;2022-09-24T07:09:59;6.27;;;3.90;;
5898;SDS011;2975;50.956;6.962;2022-09-24T07:12:32;7.73;;;4.60;;
5898;SDS011;2975;50.956;6.962;2022-09-24T07:14:58;7.20;;;4.23;;
5898;SDS011;2975;50.956;6.962;2022-09-24T07:17:25;9.47;;;4.50;;
5898;SDS011;2975;50.956;6.962;2022-09-24T07:19:52;5.97;;;4.47;;
5898;SDS011;2975;50.956;6.962;2022-09-24T07:22:18;6.20;;;4.23;;
5898;SDS011;2975;50.956;6.962;2022-09-24T07:24:44;6.47;;;4.30;;
5898;SDS011;2975;50.956;6.962;2022-09-24T07:27:10;7.27;;;4.60;;
5898;SDS011;2975;50.956;6.962;2022-09-24T07:29:36;8.30;;;4.83;;
5898;SDS011;2975;50.956;6.962;2022-09-24T07:32:02;7.50;;;4.60;;
5898;SDS011;2975;50.956;6.962;2022-09-24T07:34:29;7.60;;;4.67;;
5898;SDS011;2975;50.956;6.962;2022-09-24T07:36:55;8.77;;;4.50;;
5898;SDS011;2975;50.956;6.962;2022-09-24T07:39:21;6.87;;;4.43;;
5898;SDS011;2975;50.956;6.962;2022-09-24T07:41:47;7.47;;;4.90;;
5898;SDS011;2975;50.956;6.962;2022-09-24T07:44:13;6.40;;;4.63;;
5898;SDS011;2975;50.956;6.962;2022-09-24T07:46:39;9.10;;;4.77;;
5898;SDS011;2975;50.956;6.962;2022-09-24T07:49:04;7.53;;;5.20;;
5898;SDS011;2975;50.956;6.962;2022-09-24T07:51:30;6.37;;;5.23;;
5898;SDS011;2975;50.956;6.962;2022-09-24T07:53:56;7.27;;;4.67;;
5898;SDS011;2975;50.956;6.962;2022-09-24T07:56:22;9.40;;;5.33;;
5898;SDS011;2975;50.956;6.962;2022-09-24T07:58:50;9.27;;;5.47;;
5898;SDS011;2975;50.956;6.962;2022-09-24T08:01:16;7.80;;;5.70;;
5898;SDS011;2975;50.956;6.962;2022-09-24T08:03:43;11.07;;;5.27;;
5898;SDS011;2975;50.956;6.962;2022-09-24T08:06:10;13.00;;;5.83;;
5898;SDS011;2975;50.956;6.962;2022-09-24T08:08:36;9.47;;;5.93;;
5898;SDS011;2975;50.956;6.962;2022-09-24T08:11:03;11.30;;;5.47;;
5898;SDS011;2975;50.956;6.962;2022-09-24T08:13:30;6.60;;;5.20;;
5898;SDS011;2975;50.956;6.962;2022-09-24T08:15:57;8.90;;;5.20;;
5898;SDS011;2975;50.956;6.962;2022-09-24T08:18:24;8.43;;;4.90;;
5898;SDS011;2975;50.956;6.962;2022-09-24T08:20:49;10.93;;;5.30;;
5898;SDS011;2975;50.956;6.962;2022-09-24T08:23:15;7.10;;;5.13;;
5898;SDS011;2975;50.956;6.962;2022-09-24T08:25:40;7.13;;;4.73;;
5898;SDS011;2975;50.956;6.962;2022-09-24T08:28:06;8.17;;;5.33;;
5898;SDS011;2975;50.956;6.962;2022-09-24T08:30:33;9.20;;;5.37;;
5898;SDS011;2975;50.956;6.962;2022-09-24T08:32:59;10.60;;;4.90;;
5898;SDS011;2975;50.956;6.962;2022-09-24T08:35:25;10.47;;;5.27;;
5898;SDS011;2975;50.956;6.962;2022-09-24T08:37:54;7.93;;;4.93;;
5898;SDS011;2975;50.956;6.962;2022-09-24T08:40:21;9.13;;;5.40;;
5898;SDS011;2975;50.956;6.962;2022-09-24T08:43:01;8.90;;;5.63;;
5898;SDS011;2975;50.956;6.962;2022-09-24T08:45:43;6.80;;;5.00;;
5898;SDS011;2975;50.956;6.962;2022-09-24T08:48:32;6.83;;;5.67;;
5898;SDS011;2975;50.956;6.962;2022-09-24T08:51:03;8.30;;;5.20;;
5898;SDS011;2975;50.956;6.962;2022-09-24T08:56:05;8.23;;;5.53;;
5898;SDS011;2975;50.956;6.962;2022-09-24T09:11:39;12.90;;;7.73;;
5898;SDS011;2975;50.956;6.962;2022-09-24T09:14:15;12.80;;;7.90;;
5898;SDS011;2975;50.956;6.962;2022-09-24T09:16:52;11.73;;;8.80;;
5898;SDS011;2975;50.956;6.962;2022-09-24T09:19:22;11.43;;;8.30;;
5898;SDS011;2975;50.956;6.962;2022-09-24T09:21:59;11.37;;;7.90;;
5898;SDS011;2975;50.956;6.962;2022-09-24T09:24:48;11.40;;;7.90;;
5898;SDS011;2975;50.956;6.962;2022-09-24T09:27:18;13.50;;;8.80;;
5898;SDS011;2975;50.956;6.962;2022-09-24T09:29:45;12.20;;;9.03;;
5898;SDS011;2975;50.956;6.962;2022-09-24T09:38:15;16.20;;;8.47;;
5898;SDS011;2975;50.956;6.962;2022-09-24T09:40:51;13.30;;;7.90;;
5898;SDS011;2975;50.956;6.962;2022-09-24T09:43:24;13.30;;;7.93;;
5898;SDS011;2975;50.956;6.962;2022-09-24T09:48:53;10.57;;;8.10;;
5898;SDS011;2975;50.956;6.962;2022-09-24T09:51:24;10.57;;;8.00;;
5898;SDS011;2975;50.956;6.962;2022-09-24T09:54:08;10.27;;;7.70;;
5898;SDS011;2975;50.956;6.962;2022-09-24T09:56:42;10.83;;;8.27;;
5898;SDS011;2975;50.956;6.962;2022-09-24T10:01:36;13.67;;;10.37;;
5898;SDS011;2975;50.956;6.962;2022-09-24T10:04:04;16.87;;;10.20;;
5898;SDS011;2975;50.956;6.962;2022-09-24T10:06:43;13.90;;;9.10;;
5898;SDS011;2975;50.956;6.962;2022-09-24T10:09:12;12.73;;;8.97;;
5898;SDS011;2975;50.956;6.962;2022-09-24T10:11:43;15.00;;;9.67;;
5898;SDS011;2975;50.956;6.962;2022-09-24T10:14:11;11.10;;;9.07;;
5898;SDS011;2975;50.956;6.962;2022-09-24T10:16:39;13.30;;;9.67;;
5898;SDS011;2975;50.956;6.962;2022-09-24T10:19:25;15.10;;;8.93;;
5898;SDS011;2975;50.956;6.962;2022-09-24T10:21:53;11.67;;;9.40;;
5898;SDS011;2975;50.956;6.962;2022-09-24T10:24:22;12.93;;;8.77;;
5898;SDS011;2975;50.956;6.962;2022-09-24T10:26:50;17.17;;;9.43;;
5898;SDS011;2975;50.956;6.962;2022-09-24T10:29:26;16.30;;;10.20;;
5898;SDS011;2975;50.956;6.962;2022-09-24T10:32:19;17.50;;;10.83;;
5898;SDS011;2975;50.956;6.962;2022-09-24T10:34:54;18.53;;;10.60;;
5898;SDS011;2975;50.956;6.962;2022-09-24T10:37:24;15.63;;;10.60;;
5898;SDS011;2975;50.956;6.962;2022-09-24T10:39:57;17.07;;;10.80;;
5898;SDS011;2975;50.956;6.962;2022-09-24T10:42:35;15.30;;;10.00;;
5898;SDS011;2975;50.956;6.962;2022-09-24T10:45:01;16.17;;;10.67;;
5898;SDS011;2975;50.956;6.962;2022-09-24T10:50:21;16.37;;;9.70;;
5898;SDS011;2975;50.956;6.962;2022-09-24T10:55:36;17.97;;;10.00;;
5898;SDS011;2975;50.956;6.962;2022-09-24T11:01:18;14.33;;;11.10;;
5898;SDS011;2975;50.956;6.962;2022-09-24T11:11:55;17.43;;;10.50;;
5898;SDS011;2975;50.956;6.962;2022-09-24T11:22:55;19.60;;;12.37;;
5898;SDS011;2975;50.956;6.962;2022-09-24T11:28:22;19.33;;;11.93;;
5898;SDS011;2975;50.956;6.962;2022-09-24T11:40:19;17.13;;;10.87;;
5898;SDS011;2975;50.956;6.962;2022-09-24T11:42:26;17.73;;;11.13;;
5898;SDS011;2975;50.956;6.962;2022-09-24T11:58:45;15.77;;;11.03;;
5898;SDS011;2975;50.956;6.962;2022-09-24T12:03:50;15.80;;;9.40;;
5898;SDS011;2975;50.956;6.962;2022-09-24T12:06:43;16.70;;;9.73;;
5898;SDS011;2975;50.956;6.962;2022-09-24T12:09:30;13.53;;;8.83;;
5898;SDS011;2975;50.956;6.962;2022-09-24T12:14:45;11.47;;;8.73;;
5898;SDS011;2975;50.956;6.962;2022-09-24T12:17:36;14.50;;;8.97;;
5898;SDS011;2975;50.956;6.962;2022-09-24T12:20:16;15.10;;;9.13;;
5898;SDS011;2975;50.956;6.962;2022-09-24T12:22:53;12.37;;;8.33;;
5898;SDS011;2975;50.956;6.962;2022-09-24T12:25:36;12.53;;;8.57;;
5898;SDS011;2975;50.956;6.962;2022-09-24T12:28:08;11.90;;;8.57;;
5898;SDS011;2975;50.956;6.962;2022-09-24T12:30:48;14.97;;;8.63;;
5898;SDS011;2975;50.956;6.962;2022-09-24T12:33:42;14.27;;;8.67;;
5898;SDS011;2975;50.956;6.962;2022-09-24T12:38:48;12.37;;;8.43;;
5898;SDS011;2975;50.956;6.962;2022-09-24T12:43:56;12.60;;;8.27;;
5898;SDS011;2975;50.956;6.962;2022-09-24T12:48:59;12.20;;;8.37;;
5898;SDS011;2975;50.956;6.962;2022-09-24T12:51:32;9.83;;;7.67;;
5898;SDS011;2975;50.956;6.962;2022-09-24T12:54:04;13.07;;;7.87;;
5898;SDS011;2975;50.956;6.962;2022-09-24T12:56:33;11.53;;;8.33;;
5898;SDS011;2975;50.956;6.962;2022-09-24T12:58:59;12.43;;;8.20;;
5898;SDS011;2975;50.956;6.962;2022-09-24T13:06:39;10.30;;;7.37;;
5898;SDS011;2975;50.956;6.962;2022-09-24T13:14:29;13.17;;;7.10;;
5898;SDS011;2975;50.956;6.962;2022-09-24T13:16:57;12.10;;;7.80;;
5898;SDS011;2975;50.956;6.962;2022-09-24T13:19:32;8.43;;;7.07;;
5898;SDS011;2975;50.956;6.962;2022-09-24T13:22:01;9.97;;;7.17;;
5898;SDS011;2975;50.956;6.962;2022-09-24T13:24:30;11.43;;;7.77;;
5898;SDS011;2975;50.956;6.962;2022-09-24T13:27:23;9.20;;;6.73;;
5898;SDS011;2975;50.956;6.962;2022-09-24T13:30:30;11.63;;;7.63;;
5898;SDS011;2975;50.956;6.962;2022-09-24T13:38:35;12.90;;;6.93;;
5898;SDS011;2975;50.956;6.962;2022-09-24T13:41:17;9.90;;;7.00;;
5898;SDS011;2975;50.956;6.962;2022-09-24T13:44:06;9.50;;;7.23;;
5898;SDS011;2975;50.956;6.962;2022-09-24T13:46:41;13.67;;;6.63;;
5898;SDS011;2975;50.956;6.962;2022-09-24T13:49:14;11.43;;;6.80;;
5898;SDS011;2975;50.956;6.962;2022-09-24T13:51:43;9.90;;;6.93;;
5898;SDS011;2975;50.956;6.962;2022-09-24T13:54:24;14.20;;;6.63;;
5898;SDS011;2975;50.956;6.962;2022-09-24T14:05:22;8.57;;;5.93;;
5898;SDS011;2975;50.956;6.962;2022-09-24T14:08:06;9.30;;;6.03;;
5898;SDS011;2975;50.956;6.962;2022-09-24T14:10:37;9.30;;;5.83;;
5898;SDS011;2975;50.956;6.962;2022-09-24T14:13:17;10.93;;;6.37;;
5898;SDS011;2975;50.956;6.962;2022-09-24T14:18:20;10.50;;;6.63;;
5898;SDS011;2975;50.956;6.962;2022-09-24T14:20:49;7.63;;;5.67;;
5898;SDS011;2975;50.956;6.962;2022-09-24T14:23:22;11.07;;;6.40;;
5898;SDS011;2975;50.956;6.962;2022-09-24T14:25:54;9.53;;;6.63;;
5898;SDS011;2975;50.956;6.962;2022-09-24T14:28:21;9.33;;;6.10;;
5898;SDS011;2975;50.956;6.962;2022-09-24T14:30:51;7.80;;;5.87;;
5898;SDS011;2975;50.956;6.962;2022-09-24T14:33:19;10.77;;;6.57;;
5898;SDS011;2975;50.956;6.962;2022-09-24T14:35:50;10.17;;;6.47;;
5898;SDS011;2975;50.956;6.962;2022-09-24T14:40:50;8.60;;;6.47;;
5898;SDS011;2975;50.956;6.962;2022-09-24T14:43:21;9.93;;;6.77;;
5898;SDS011;2975;50.956;6.962;2022-09-24T14:45:59;8.80;;;6.27;;
5898;SDS011;2975;50.956;6.962;2022-09-24T14:48:46;10.07;;;7.10;;
5898;SDS011;2975;50.956;6.962;2022-09-24T14:51:22;12.23;;;7.87;;
5898;SDS011;2975;50.956;6.962;2022-09-24T14:54:04;11.17;;;7.47;;
5898;SDS011;2975;50.956;6.962;2022-09-24T14:56:49;9.67;;;6.50;;
5898;SDS011;2975;50.956;6.962;2022-09-24T14:59:25;9.57;;;6.97;;
5898;SDS011;2975;50.956;6.962;2022-09-24T15:04:55;13.27;;;7.30;;
5898;SDS011;2975;50.956;6.962;2022-09-24T15:07:24;10.60;;;7.73;;
5898;SDS011;2975;50.956;6.962;2022-09-24T15:09:52;10.57;;;7.50;;
5898;SDS011;2975;50.956;6.962;2022-09-24T15:12:24;11.57;;;7.30;;
5898;SDS011;2975;50.956;6.962;2022-09-24T15:14:56;9.90;;;7.53;;
5898;SDS011;2975;50.956;6.962;2022-09-24T15:17:22;9.03;;;6.47;;
5898;SDS011;2975;50.956;6.962;2022-09-24T15:19:52;10.27;;;7.00;;
5898;SDS011;2975;50.956;6.962;2022-09-24T15:22:20;10.33;;;7.07;;
5898;SDS011;2975;50.956;6.962;2022-09-24T15:24:47;12.10;;;8.00;;
5898;SDS011;2975;50.956;6.962;2022-09-24T15:27:18;9.80;;;7.63;;
5898;SDS011;2975;50.956;6.962;2022-09-24T15:29:45;14.67;;;7.80;;
5898;SDS011;2975;50.956;6.962;2022-09-24T15:32:13;11.40;;;8.70;;
5898;SDS011;2975;50.956;6.962;2022-09-24T15:34:40;10.53;;;7.80;;
5898;SDS011;2975;50.956;6.962;2022-09-24T15:37:10;10.43;;;7.50;;
5898;SDS011;2975;50.956;6.962;2022-09-24T15:39:39;8.10;;;6.83;;
5898;SDS011;2975;50.956;6.962;2022-09-24T15:42:10;9.03;;;6.93;;
5898;SDS011;2975;50.956;6.962;2022-09-24T15:44:36;8.30;;;6.17;;
5898;SDS011;2975;50.956;6.962;2022-09-24T15:47:01;7.77;;;6.77;;
5898;SDS011;2975;50.956;6.962;2022-09-24T15:49:27;8.60;;;6.60;;
5898;SDS011;2975;50.956;6.962;2022-09-24T15:51:55;11.23;;;6.53;;
5898;SDS011;2975;50.956;6.962;2022-09-24T15:54:29;11.40;;;7.13;;
5898;SDS011;2975;50.956;6.962;2022-09-24T15:56:55;9.67;;;7.43;;
5898;SDS011;2975;50.956;6.962;2022-09-24T15:59:20;14.17;;;7.27;;
5898;SDS011;2975;50.956;6.962;2022-09-24T16:01:47;10.83;;;6.83;;
5898;SDS011;2975;50.956;6.962;2022-09-24T16:04:15;9.40;;;6.80;;
5898;SDS011;2975;50.956;6.962;2022-09-24T16:06:41;17.87;;;11.83;;
5898;SDS011;2975;50.956;6.962;2022-09-24T16:09:07;19.77;;;13.30;;
5898;SDS011;2975;50.956;6.962;2022-09-24T16:11:33;17.07;;;9.37;;
5898;SDS011;2975;50.956;6.962;2022-09-24T16:13:58;11.33;;;7.93;;
5898;SDS011;2975;50.956;6.962;2022-09-24T16:16:24;10.20;;;7.80;;
5898;SDS011;2975;50.956;6.962;2022-09-24T16:18:50;10.93;;;7.63;;
5898;SDS011;2975;50.956;6.962;2022-09-24T16:21:16;10.90;;;8.47;;
5898;SDS011;2975;50.956;6.962;2022-09-24T16:23:42;15.60;;;9.03;;
5898;SDS011;2975;50.956;6.962;2022-09-24T16:26:07;11.83;;;8.73;;
5898;SDS011;2975;50.956;6.962;2022-09-24T16:28:34;13.03;;;8.10;;
5898;SDS011;2975;50.956;6.962;2022-09-24T16:31:03;17.17;;;8.57;;
5898;SDS011;2975;50.956;6.962;2022-09-24T16:33:30;14.87;;;8.07;;
5898;SDS011;2975;50.956;6.962;2022-09-24T16:35:56;13.00;;;7.83;;
5898;SDS011;2975;50.956;6.962;2022-09-24T16:38:27;15.33;;;8.50;;
5898;SDS011;2975;50.956;6.962;2022-09-24T16:41:00;13.23;;;8.07;;
5898;SDS011;2975;50.956;6.962;2022-09-24T16:43:26;13.00;;;8.33;;
5898;SDS011;2975;50.956;6.962;2022-09-24T16:45:52;10.70;;;8.13;;
5898;SDS011;2975;50.956;6.962;2022-09-24T16:48:18;10.57;;;7.27;;
5898;SDS011;2975;50.956;6.962;2022-09-24T16:50:43;12.10;;;8.27;;
5898;SDS011;2975;50.956;6.962;2022-09-24T16:53:09;11.87;;;8.63;;
5898;SDS011;2975;50.956;6.962;2022-09-24T16:55:34;11.07;;;8.07;;
5898;SDS011;2975;50.956;6.962;2022-09-24T16:58:00;11.10;;;8.23;;
5898;SDS011;2975;50.956;6.962;2022-09-24T17:00:25;10.77;;;7.87;;
5898;SDS011;2975;50.956;6.962;2022-09-24T17:02:51;9.40;;;7.23;;
5898;SDS011;2975;50.956;6.962;2022-09-24T17:05:17;11.27;;;7.40;;
5898;SDS011;2975;50.956;6.962;2022-09-24T17:07:42;11.80;;;8.20;;
5898;SDS011;2975;50.956;6.962;2022-09-24T17:10:08;10.20;;;7.10;;
5898;SDS011;2975;50.956;6.962;2022-09-24T17:12:40;9.43;;;7.07;;
5898;SDS011;2975;50.956;6.962;2022-09-24T17:15:06;13.17;;;7.57;;
5898;SDS011;2975;50.956;6.962;2022-09-24T17:17:32;10.27;;;7.33;;
5898;SDS011;2975;50.956;6.962;2022-09-24T17:19:58;12.10;;;7.97;;
5898;SDS011;2975;50.956;6.962;2022-09-24T17:22:23;12.27;;;7.53;;
5898;SDS011;2975;50.956;6.962;2022-09-24T17:24:49;12.73;;;8.13;;
5898;SDS011;2975;50.956;6.962;2022-09-24T17:27:16;9.87;;;7.70;;
5898;SDS011;2975;50.956;6.962;2022-09-24T17:29:42;11.37;;;7.97;;
5898;SDS011;2975;50.956;6.962;2022-09-24T17:32:07;9.63;;;7.50;;
5898;SDS011;2975;50.956;6.962;2022-09-24T17:34:33;13.93;;;8.40;;
5898;SDS011;2975;50.956;6.962;2022-09-24T17:36:59;12.13;;;8.20;;
5898;SDS011;2975;50.956;6.962;2022-09-24T17:39:24;13.37;;;8.70;;
5898;SDS011;2975;50.956;6.962;2022-09-24T17:41:51;13.23;;;8.73;;
5898;SDS011;2975;50.956;6.962;2022-09-24T17:44:17;14.33;;;9.50;;
5898;SDS011;2975;50.956;6.962;2022-09-24T17:46:43;13.50;;;9.20;;
5898;SDS011;2975;50.956;6.962;2022-09-24T17:49:08;13.90;;;8.73;;
5898;SDS011;2975;50.956;6.962;2022-09-24T17:51:35;11.77;;;8.73;;